sensor_id;sensor_type;location;lat;lon;timestamp;P1;durP1;ratioP1;P2;durP2;ratioP2
63005;SDS011;53704;52.532;6.426;2022-09-09T00:00:24;4.68;;;3.38;;
63005;SDS011;53704;52.532;6.426;2022-09-09T00:02:54;5.68;;;3.30;;
63005;SDS011;53704;52.532;6.426;2022-09-09T00:08:25;4.35;;;3.30;;
63005;SDS011;53704;52.532;6.426;2022-09-09T00:11:01;3.83;;;3.53;;
63005;SDS011;53704;52.532;6.426;2022-09-09T00:13:41;4.90;;;3.75;;
63005;SDS011;53704;52.532;6.426;2022-09-09T00:21:38;7.35;;;3.40;;
63005;SDS011;53704;52.532;6.426;2022-09-09T00:24:10;7.60;;;3.70;;
63005;SDS011;53704;52.532;6.426;2022-09-09T00:26:47;7.60;;;3.30;;
63005;SDS011;53704;52.532;6.426;2022-09-09T00:31:44;5.78;;;4.32;;
63005;SDS011;53704;52.532;6.426;2022-09-09T00:34:20;7.82;;;3.35;;
63005;SDS011;53704;52.532;6.426;2022-09-09T00:36:48;5.28;;;3.80;;
63005;SDS011;53704;52.532;6.426;2022-09-09T00:42:12;8.00;;;3.80;;
63005;SDS011;53704;52.532;6.426;2022-09-09T00:44:39;8.65;;;4.05;;
63005;SDS011;53704;52.532;6.426;2022-09-09T00:47:35;8.48;;;3.58;;
63005;SDS011;53704;52.532;6.426;2022-09-09T00:58:14;5.80;;;4.10;;
63005;SDS011;53704;52.532;6.426;2022-09-09T01:00:44;4.28;;;3.88;;
63005;SDS011;53704;52.532;6.426;2022-09-09T01:03:18;6.45;;;4.43;;
63005;SDS011;53704;52.532;6.426;2022-09-09T01:28:09;5.88;;;4.50;;
63005;SDS011;53704;52.532;6.426;2022-09-09T01:30:41;6.55;;;4.13;;
63005;SDS011;53704;52.532;6.426;2022-09-09T01:33:07;4.70;;;4.30;;
63005;SDS011;53704;52.532;6.426;2022-09-09T01:38:35;5.22;;;3.50;;
63005;SDS011;53704;52.532;6.426;2022-09-09T01:41:01;5.40;;;4.15;;
63005;SDS011;53704;52.532;6.426;2022-09-09T01:43:27;11.05;;;4.63;;
63005;SDS011;53704;52.532;6.426;2022-09-09T01:45:54;6.63;;;3.70;;
63005;SDS011;53704;52.532;6.426;2022-09-09T01:48:24;4.65;;;4.10;;
63005;SDS011;53704;52.532;6.426;2022-09-09T01:50:50;8.88;;;3.78;;
63005;SDS011;53704;52.532;6.426;2022-09-09T01:53:16;6.00;;;4.03;;
63005;SDS011;53704;52.532;6.426;2022-09-09T01:55:47;12.63;;;4.45;;
63005;SDS011;53704;52.532;6.426;2022-09-09T01:58:29;7.22;;;4.20;;
63005;SDS011;53704;52.532;6.426;2022-09-09T02:03:57;5.63;;;3.83;;
63005;SDS011;53704;52.532;6.426;2022-09-09T02:06:27;4.55;;;4.22;;
63005;SDS011;53704;52.532;6.426;2022-09-09T02:08:59;3.58;;;3.38;;
63005;SDS011;53704;52.532;6.426;2022-09-09T02:11:28;8.63;;;3.95;;
63005;SDS011;53704;52.532;6.426;2022-09-09T02:14:18;4.07;;;3.63;;
63005;SDS011;53704;52.532;6.426;2022-09-09T02:16:56;4.75;;;3.75;;
63005;SDS011;53704;52.532;6.426;2022-09-09T02:19:39;5.63;;;4.07;;
63005;SDS011;53704;52.532;6.426;2022-09-09T02:22:09;5.50;;;3.58;;
63005;SDS011;53704;52.532;6.426;2022-09-09T02:24:36;4.75;;;4.07;;
63005;SDS011;53704;52.532;6.426;2022-09-09T02:27:04;4.20;;;3.78;;
63005;SDS011;53704;52.532;6.426;2022-09-09T02:29:34;5.30;;;4.07;;
63005;SDS011;53704;52.532;6.426;2022-09-09T02:32:05;6.53;;;3.50;;
63005;SDS011;53704;52.532;6.426;2022-09-09T02:34:34;3.95;;;3.70;;
63005;SDS011;53704;52.532;6.426;2022-09-09T02:37:04;4.95;;;3.20;;
63005;SDS011;53704;52.532;6.426;2022-09-09T02:39:33;5.53;;;3.88;;
63005;SDS011;53704;52.532;6.426;2022-09-09T02:41:58;8.18;;;4.50;;
63005;SDS011;53704;52.532;6.426;2022-09-09T02:44:24;3.47;;;3.17;;
63005;SDS011;53704;52.532;6.426;2022-09-09T02:52:14;8.00;;;3.47;;
63005;SDS011;53704;52.532;6.426;2022-09-09T02:54:41;5.20;;;4.35;;
63005;SDS011;53704;52.532;6.426;2022-09-09T02:59:43;6.03;;;4.00;;
63005;SDS011;53704;52.532;6.426;2022-09-09T03:02:09;5.75;;;4.57;;
63005;SDS011;53704;52.532;6.426;2022-09-09T03:04:36;7.47;;;5.88;;
63005;SDS011;53704;52.532;6.426;2022-09-09T03:07:02;5.90;;;5.40;;
63005;SDS011;53704;52.532;6.426;2022-09-09T03:09:28;6.85;;;5.43;;
63005;SDS011;53704;52.532;6.426;2022-09-09T03:11:54;6.75;;;5.90;;
63005;SDS011;53704;52.532;6.426;2022-09-09T03:14:20;6.25;;;5.85;;
63005;SDS011;53704;52.532;6.426;2022-09-09T03:16:49;6.93;;;6.35;;
63005;SDS011;53704;52.532;6.426;2022-09-09T03:19:15;7.97;;;5.47;;
63005;SDS011;53704;52.532;6.426;2022-09-09T03:21:41;6.25;;;5.78;;
63005;SDS011;53704;52.532;6.426;2022-09-09T03:24:06;7.78;;;6.75;;
63005;SDS011;53704;52.532;6.426;2022-09-09T03:26:32;8.52;;;6.70;;
63005;SDS011;53704;52.532;6.426;2022-09-09T03:28:57;8.50;;;5.93;;
63005;SDS011;53704;52.532;6.426;2022-09-09T03:31:25;6.35;;;5.88;;
63005;SDS011;53704;52.532;6.426;2022-09-09T03:33:51;6.38;;;5.88;;
63005;SDS011;53704;52.532;6.426;2022-09-09T03:36:16;8.15;;;6.05;;
63005;SDS011;53704;52.532;6.426;2022-09-09T03:38:42;6.60;;;6.05;;
63005;SDS011;53704;52.532;6.426;2022-09-09T03:41:07;11.63;;;6.75;;
63005;SDS011;53704;52.532;6.426;2022-09-09T03:43:33;7.57;;;6.05;;
63005;SDS011;53704;52.532;6.426;2022-09-09T03:45:59;6.38;;;5.78;;
63005;SDS011;53704;52.532;6.426;2022-09-09T03:48:25;10.07;;;6.82;;
63005;SDS011;53704;52.532;6.426;2022-09-09T03:50:53;6.25;;;5.63;;
63005;SDS011;53704;52.532;6.426;2022-09-09T03:53:21;11.07;;;6.07;;
63005;SDS011;53704;52.532;6.426;2022-09-09T03:55:48;8.32;;;5.53;;
63005;SDS011;53704;52.532;6.426;2022-09-09T03:58:17;6.80;;;6.10;;
63005;SDS011;53704;52.532;6.426;2022-09-09T04:00:44;7.13;;;6.43;;
63005;SDS011;53704;52.532;6.426;2022-09-09T04:03:31;7.95;;;6.35;;
63005;SDS011;53704;52.532;6.426;2022-09-09T04:05:58;6.43;;;5.82;;
63005;SDS011;53704;52.532;6.426;2022-09-09T04:08:24;6.32;;;5.93;;
63005;SDS011;53704;52.532;6.426;2022-09-09T04:10:51;6.93;;;6.35;;
63005;SDS011;53704;52.532;6.426;2022-09-09T04:13:17;7.07;;;6.57;;
63005;SDS011;53704;52.532;6.426;2022-09-09T04:15:44;8.23;;;6.53;;
63005;SDS011;53704;52.532;6.426;2022-09-09T04:20:48;13.27;;;6.40;;
63005;SDS011;53704;52.532;6.426;2022-09-09T04:23:14;8.68;;;6.93;;
63005;SDS011;53704;52.532;6.426;2022-09-09T04:25:45;8.13;;;7.03;;
63005;SDS011;53704;52.532;6.426;2022-09-09T04:28:15;7.28;;;6.70;;
63005;SDS011;53704;52.532;6.426;2022-09-09T04:30:41;6.97;;;6.53;;
63005;SDS011;53704;52.532;6.426;2022-09-09T04:33:07;7.38;;;6.78;;
63005;SDS011;53704;52.532;6.426;2022-09-09T04:35:33;7.75;;;7.18;;
63005;SDS011;53704;52.532;6.426;2022-09-09T04:37:58;8.65;;;7.20;;
63005;SDS011;53704;52.532;6.426;2022-09-09T04:40:24;7.20;;;6.65;;
63005;SDS011;53704;52.532;6.426;2022-09-09T04:42:50;7.28;;;6.68;;
63005;SDS011;53704;52.532;6.426;2022-09-09T04:45:16;8.30;;;7.47;;
63005;SDS011;53704;52.532;6.426;2022-09-09T04:47:41;6.93;;;6.40;;
63005;SDS011;53704;52.532;6.426;2022-09-09T04:50:07;8.95;;;7.80;;
63005;SDS011;53704;52.532;6.426;2022-09-09T04:52:34;7.30;;;6.70;;
63005;SDS011;53704;52.532;6.426;2022-09-09T04:55:00;8.30;;;6.75;;
63005;SDS011;53704;52.532;6.426;2022-09-09T04:57:26;13.85;;;7.10;;
63005;SDS011;53704;52.532;6.426;2022-09-09T04:59:51;9.23;;;7.15;;
63005;SDS011;53704;52.532;6.426;2022-09-09T05:02:17;8.05;;;7.38;;
63005;SDS011;53704;52.532;6.426;2022-09-09T05:04:42;8.70;;;7.95;;
63005;SDS011;53704;52.532;6.426;2022-09-09T05:07:08;12.45;;;8.20;;
63005;SDS011;53704;52.532;6.426;2022-09-09T05:09:34;7.78;;;7.15;;
63005;SDS011;53704;52.532;6.426;2022-09-09T05:11:59;8.90;;;8.10;;
63005;SDS011;53704;52.532;6.426;2022-09-09T05:14:25;9.77;;;8.05;;
63005;SDS011;53704;52.532;6.426;2022-09-09T05:16:50;8.35;;;7.72;;
63005;SDS011;53704;52.532;6.426;2022-09-09T05:19:16;9.38;;;8.52;;
63005;SDS011;53704;52.532;6.426;2022-09-09T05:21:44;11.65;;;8.25;;
63005;SDS011;53704;52.532;6.426;2022-09-09T05:24:10;8.85;;;8.15;;
63005;SDS011;53704;52.532;6.426;2022-09-09T05:26:36;8.70;;;7.88;;
63005;SDS011;53704;52.532;6.426;2022-09-09T05:29:01;8.95;;;7.45;;
63005;SDS011;53704;52.532;6.426;2022-09-09T05:31:27;8.02;;;7.28;;
63005;SDS011;53704;52.532;6.426;2022-09-09T05:33:55;8.30;;;7.63;;
63005;SDS011;53704;52.532;6.426;2022-09-09T05:36:20;7.97;;;7.43;;
63005;SDS011;53704;52.532;6.426;2022-09-09T05:38:47;8.95;;;8.05;;
63005;SDS011;53704;52.532;6.426;2022-09-09T05:41:14;10.05;;;6.93;;
63005;SDS011;53704;52.532;6.426;2022-09-09T05:43:40;8.52;;;7.30;;
63005;SDS011;53704;52.532;6.426;2022-09-09T05:46:11;7.82;;;7.05;;
63005;SDS011;53704;52.532;6.426;2022-09-09T05:48:41;7.20;;;6.60;;
63005;SDS011;53704;52.532;6.426;2022-09-09T05:51:09;7.90;;;7.20;;
63005;SDS011;53704;52.532;6.426;2022-09-09T05:53:37;7.45;;;6.32;;
63005;SDS011;53704;52.532;6.426;2022-09-09T05:58:31;9.43;;;7.03;;
63005;SDS011;53704;52.532;6.426;2022-09-09T06:01:03;9.55;;;6.88;;
63005;SDS011;53704;52.532;6.426;2022-09-09T06:03:34;9.27;;;6.30;;
63005;SDS011;53704;52.532;6.426;2022-09-09T06:06:00;8.75;;;6.68;;
63005;SDS011;53704;52.532;6.426;2022-09-09T06:08:30;7.32;;;6.63;;
63005;SDS011;53704;52.532;6.426;2022-09-09T06:11:00;12.00;;;6.50;;
63005;SDS011;53704;52.532;6.426;2022-09-09T06:13:27;10.73;;;6.72;;
63005;SDS011;53704;52.532;6.426;2022-09-09T06:15:53;7.85;;;6.63;;
63005;SDS011;53704;52.532;6.426;2022-09-09T06:18:18;6.32;;;5.68;;
63005;SDS011;53704;52.532;6.426;2022-09-09T06:20:56;11.85;;;5.78;;
63005;SDS011;53704;52.532;6.426;2022-09-09T06:23:23;9.25;;;6.30;;
63005;SDS011;53704;52.532;6.426;2022-09-09T06:25:49;6.78;;;5.65;;
63005;SDS011;53704;52.532;6.426;2022-09-09T06:28:15;5.60;;;5.10;;
63005;SDS011;53704;52.532;6.426;2022-09-09T06:30:42;9.52;;;5.53;;
63005;SDS011;53704;52.532;6.426;2022-09-09T06:33:08;7.78;;;6.47;;
63005;SDS011;53704;52.532;6.426;2022-09-09T06:35:34;12.10;;;6.15;;
63005;SDS011;53704;52.532;6.426;2022-09-09T06:38:00;7.70;;;5.53;;
63005;SDS011;53704;52.532;6.426;2022-09-09T06:40:25;14.63;;;5.93;;
63005;SDS011;53704;52.532;6.426;2022-09-09T06:42:51;9.52;;;5.10;;
63005;SDS011;53704;52.532;6.426;2022-09-09T06:45:16;10.95;;;5.85;;
63005;SDS011;53704;52.532;6.426;2022-09-09T06:47:42;8.55;;;4.97;;
63005;SDS011;53704;52.532;6.426;2022-09-09T06:50:08;11.18;;;5.60;;
63005;SDS011;53704;52.532;6.426;2022-09-09T06:52:36;5.18;;;4.80;;
63005;SDS011;53704;52.532;6.426;2022-09-09T06:55:01;6.40;;;4.47;;
63005;SDS011;53704;52.532;6.426;2022-09-09T06:57:27;9.55;;;4.65;;
63005;SDS011;53704;52.532;6.426;2022-09-09T06:59:53;7.47;;;4.68;;
63005;SDS011;53704;52.532;6.426;2022-09-09T07:02:18;8.20;;;4.68;;
63005;SDS011;53704;52.532;6.426;2022-09-09T07:04:44;11.18;;;4.90;;
63005;SDS011;53704;52.532;6.426;2022-09-09T07:07:09;6.78;;;4.65;;
63005;SDS011;53704;52.532;6.426;2022-09-09T07:09:37;7.32;;;4.50;;
63005;SDS011;53704;52.532;6.426;2022-09-09T07:12:02;6.22;;;4.43;;
63005;SDS011;53704;52.532;6.426;2022-09-09T07:14:30;9.98;;;4.35;;
63005;SDS011;53704;52.532;6.426;2022-09-09T07:16:56;7.78;;;4.32;;
63005;SDS011;53704;52.532;6.426;2022-09-09T07:19:22;7.80;;;3.83;;
63005;SDS011;53704;52.532;6.426;2022-09-09T07:21:47;16.60;;;4.32;;
63005;SDS011;53704;52.532;6.426;2022-09-09T07:24:13;14.45;;;3.88;;
63005;SDS011;53704;52.532;6.426;2022-09-09T07:26:39;16.80;;;4.30;;
63005;SDS011;53704;52.532;6.426;2022-09-09T07:29:05;11.60;;;3.95;;
63005;SDS011;53704;52.532;6.426;2022-09-09T07:31:31;9.13;;;4.07;;
63005;SDS011;53704;52.532;6.426;2022-09-09T07:33:58;7.00;;;3.25;;
63005;SDS011;53704;52.532;6.426;2022-09-09T07:36:28;17.17;;;3.85;;
63005;SDS011;53704;52.532;6.426;2022-09-09T07:38:56;9.13;;;3.53;;
63005;SDS011;53704;52.532;6.426;2022-09-09T07:41:25;9.18;;;3.10;;
63005;SDS011;53704;52.532;6.426;2022-09-09T07:43:53;14.48;;;3.42;;
63005;SDS011;53704;52.532;6.426;2022-09-09T07:46:19;9.10;;;3.60;;
63005;SDS011;53704;52.532;6.426;2022-09-09T07:48:47;18.88;;;3.95;;
63005;SDS011;53704;52.532;6.426;2022-09-09T07:51:16;17.13;;;3.85;;
63005;SDS011;53704;52.532;6.426;2022-09-09T07:53:44;17.23;;;3.67;;
63005;SDS011;53704;52.532;6.426;2022-09-09T07:56:11;14.43;;;3.97;;
63005;SDS011;53704;52.532;6.426;2022-09-09T07:58:39;9.50;;;3.47;;
63005;SDS011;53704;52.532;6.426;2022-09-09T08:01:09;22.30;;;3.63;;
63005;SDS011;53704;52.532;6.426;2022-09-09T08:03:36;11.95;;;3.40;;
63005;SDS011;53704;52.532;6.426;2022-09-09T08:06:03;7.63;;;3.10;;
63005;SDS011;53704;52.532;6.426;2022-09-09T08:08:32;13.82;;;3.58;;
63005;SDS011;53704;52.532;6.426;2022-09-09T08:13:32;6.97;;;3.08;;
63005;SDS011;53704;52.532;6.426;2022-09-09T08:16:12;15.65;;;3.28;;
63005;SDS011;53704;52.532;6.426;2022-09-09T08:18:39;10.25;;;3.58;;
63005;SDS011;53704;52.532;6.426;2022-09-09T08:21:15;12.55;;;3.53;;
63005;SDS011;53704;52.532;6.426;2022-09-09T08:23:43;6.72;;;2.70;;
63005;SDS011;53704;52.532;6.426;2022-09-09T08:26:12;14.20;;;3.22;;
63005;SDS011;53704;52.532;6.426;2022-09-09T08:28:42;8.38;;;2.95;;
63005;SDS011;53704;52.532;6.426;2022-09-09T08:31:09;9.18;;;2.67;;
63005;SDS011;53704;52.532;6.426;2022-09-09T08:33:37;19.27;;;3.28;;
63005;SDS011;53704;52.532;6.426;2022-09-09T08:36:03;11.00;;;2.83;;
63005;SDS011;53704;52.532;6.426;2022-09-09T08:38:30;11.05;;;3.13;;
63005;SDS011;53704;52.532;6.426;2022-09-09T08:40:57;18.33;;;3.58;;
63005;SDS011;53704;52.532;6.426;2022-09-09T08:43:34;13.65;;;3.83;;
63005;SDS011;53704;52.532;6.426;2022-09-09T08:51:45;17.25;;;2.83;;
63005;SDS011;53704;52.532;6.426;2022-09-09T08:54:10;21.05;;;3.25;;
63005;SDS011;53704;52.532;6.426;2022-09-09T08:56:36;10.77;;;2.60;;
63005;SDS011;53704;52.532;6.426;2022-09-09T08:59:02;9.95;;;2.88;;
63005;SDS011;53704;52.532;6.426;2022-09-09T09:01:33;9.38;;;2.65;;
63005;SDS011;53704;52.532;6.426;2022-09-09T09:12:25;17.83;;;2.70;;
63005;SDS011;53704;52.532;6.426;2022-09-09T09:14:54;14.77;;;3.13;;
63005;SDS011;53704;52.532;6.426;2022-09-09T09:17:23;7.72;;;2.58;;
63005;SDS011;53704;52.532;6.426;2022-09-09T09:19:52;11.65;;;2.47;;
63005;SDS011;53704;52.532;6.426;2022-09-09T09:28:00;9.38;;;2.25;;
63005;SDS011;53704;52.532;6.426;2022-09-09T09:30:44;10.93;;;3.05;;
63005;SDS011;53704;52.532;6.426;2022-09-09T09:33:21;6.70;;;2.15;;
63005;SDS011;53704;52.532;6.426;2022-09-09T09:35:48;10.37;;;2.73;;
63005;SDS011;53704;52.532;6.426;2022-09-09T09:38:21;14.50;;;2.05;;
63005;SDS011;53704;52.532;6.426;2022-09-09T09:40:51;15.30;;;2.58;;
63005;SDS011;53704;52.532;6.426;2022-09-09T09:43:22;8.07;;;2.58;;
63005;SDS011;53704;52.532;6.426;2022-09-09T09:45:56;8.60;;;2.53;;
63005;SDS011;53704;52.532;6.426;2022-09-09T09:48:22;10.18;;;2.88;;
63005;SDS011;53704;52.532;6.426;2022-09-09T09:50:50;9.95;;;2.72;;
63005;SDS011;53704;52.532;6.426;2022-09-09T09:53:27;9.43;;;2.38;;
63005;SDS011;53704;52.532;6.426;2022-09-09T09:55:58;13.05;;;2.15;;
63005;SDS011;53704;52.532;6.426;2022-09-09T09:58:26;11.30;;;2.83;;
63005;SDS011;53704;52.532;6.426;2022-09-09T10:00:57;8.68;;;2.25;;
63005;SDS011;53704;52.532;6.426;2022-09-09T10:03:28;14.18;;;2.63;;
63005;SDS011;53704;52.532;6.426;2022-09-09T10:05:56;9.48;;;2.92;;
63005;SDS011;53704;52.532;6.426;2022-09-09T10:08:26;7.15;;;1.98;;
63005;SDS011;53704;52.532;6.426;2022-09-09T10:13:50;7.57;;;2.20;;
63005;SDS011;53704;52.532;6.426;2022-09-09T10:19:32;12.30;;;2.85;;
63005;SDS011;53704;52.532;6.426;2022-09-09T10:30:00;10.32;;;2.33;;
63005;SDS011;53704;52.532;6.426;2022-09-09T10:40:58;7.63;;;2.13;;
63005;SDS011;53704;52.532;6.426;2022-09-09T10:57:13;5.35;;;2.67;;
63005;SDS011;53704;52.532;6.426;2022-09-09T11:00:03;11.50;;;2.67;;
63005;SDS011;53704;52.532;6.426;2022-09-09T11:02:31;3.72;;;1.50;;
63005;SDS011;53704;52.532;6.426;2022-09-09T11:07:39;2.28;;;1.60;;
63005;SDS011;53704;52.532;6.426;2022-09-09T11:13:20;6.57;;;1.98;;
63005;SDS011;53704;52.532;6.426;2022-09-09T11:15:52;7.57;;;2.30;;
63005;SDS011;53704;52.532;6.426;2022-09-09T11:18:24;6.27;;;1.93;;
63005;SDS011;53704;52.532;6.426;2022-09-09T11:20:53;7.75;;;2.08;;
63005;SDS011;53704;52.532;6.426;2022-09-09T11:23:37;7.18;;;2.42;;
63005;SDS011;53704;52.532;6.426;2022-09-09T11:26:15;8.45;;;2.05;;
63005;SDS011;53704;52.532;6.426;2022-09-09T11:29:13;7.88;;;2.50;;
63005;SDS011;53704;52.532;6.426;2022-09-09T11:32:08;9.23;;;2.42;;
63005;SDS011;53704;52.532;6.426;2022-09-09T11:37:55;7.15;;;1.80;;
63005;SDS011;53704;52.532;6.426;2022-09-09T11:40:23;10.02;;;2.15;;
63005;SDS011;53704;52.532;6.426;2022-09-09T11:43:00;9.02;;;2.28;;
63005;SDS011;53704;52.532;6.426;2022-09-09T11:45:29;9.35;;;2.08;;
63005;SDS011;53704;52.532;6.426;2022-09-09T11:47:56;8.40;;;2.17;;
63005;SDS011;53704;52.532;6.426;2022-09-09T11:52:49;4.82;;;1.27;;
63005;SDS011;53704;52.532;6.426;2022-09-09T11:55:28;13.25;;;2.15;;
63005;SDS011;53704;52.532;6.426;2022-09-09T12:00:37;7.90;;;2.08;;
63005;SDS011;53704;52.532;6.426;2022-09-09T12:03:05;10.15;;;1.92;;
63005;SDS011;53704;52.532;6.426;2022-09-09T12:05:51;9.05;;;1.80;;
63005;SDS011;53704;52.532;6.426;2022-09-09T12:08:19;12.20;;;1.40;;
63005;SDS011;53704;52.532;6.426;2022-09-09T12:10:53;5.53;;;1.92;;
63005;SDS011;53704;52.532;6.426;2022-09-09T12:13:21;3.75;;;1.30;;
63005;SDS011;53704;52.532;6.426;2022-09-09T12:15:55;4.78;;;1.70;;
63005;SDS011;53704;52.532;6.426;2022-09-09T12:18:23;5.35;;;1.70;;
63005;SDS011;53704;52.532;6.426;2022-09-09T12:21:36;9.48;;;2.15;;
63005;SDS011;53704;52.532;6.426;2022-09-09T12:23:54;9.82;;;1.83;;
63005;SDS011;53704;52.532;6.426;2022-09-09T12:31:46;6.30;;;1.92;;
63005;SDS011;53704;52.532;6.426;2022-09-09T12:37:12;2.42;;;1.33;;
63005;SDS011;53704;52.532;6.426;2022-09-09T12:39:51;4.53;;;1.50;;
63005;SDS011;53704;52.532;6.426;2022-09-09T12:42:21;8.68;;;1.85;;
63005;SDS011;53704;52.532;6.426;2022-09-09T12:44:54;14.85;;;2.50;;
63005;SDS011;53704;52.532;6.426;2022-09-09T12:47:30;4.90;;;1.67;;
63005;SDS011;53704;52.532;6.426;2022-09-09T12:50:14;8.73;;;1.80;;
63005;SDS011;53704;52.532;6.426;2022-09-09T12:52:51;10.38;;;2.28;;
63005;SDS011;53704;52.532;6.426;2022-09-09T12:55:34;8.50;;;1.92;;
63005;SDS011;53704;52.532;6.426;2022-09-09T12:58:02;11.45;;;1.70;;
63005;SDS011;53704;52.532;6.426;2022-09-09T13:00:31;6.32;;;2.53;;
63005;SDS011;53704;52.532;6.426;2022-09-09T13:02:59;5.25;;;2.10;;
63005;SDS011;53704;52.532;6.426;2022-09-09T13:05:35;4.60;;;1.90;;
63005;SDS011;53704;52.532;6.426;2022-09-09T13:08:04;7.22;;;1.65;;
63005;SDS011;53704;52.532;6.426;2022-09-09T13:10:34;8.80;;;2.10;;
63005;SDS011;53704;52.532;6.426;2022-09-09T13:13:05;5.38;;;1.95;;
63005;SDS011;53704;52.532;6.426;2022-09-09T13:15:39;11.98;;;2.03;;
63005;SDS011;53704;52.532;6.426;2022-09-09T13:18:06;3.20;;;1.35;;
63005;SDS011;53704;52.532;6.426;2022-09-09T13:20:36;3.50;;;1.35;;
63005;SDS011;53704;52.532;6.426;2022-09-09T13:23:02;7.65;;;1.42;;
63005;SDS011;53704;52.532;6.426;2022-09-09T13:25:28;4.45;;;1.10;;
63005;SDS011;53704;52.532;6.426;2022-09-09T13:27:57;5.60;;;0.95;;
63005;SDS011;53704;52.532;6.426;2022-09-09T13:36:12;5.93;;;1.23;;
63005;SDS011;53704;52.532;6.426;2022-09-09T13:38:40;2.38;;;1.02;;
63005;SDS011;53704;52.532;6.426;2022-09-09T13:41:22;2.35;;;0.90;;
63005;SDS011;53704;52.532;6.426;2022-09-09T13:43:49;3.97;;;1.20;;
63005;SDS011;53704;52.532;6.426;2022-09-09T13:54:05;3.05;;;1.08;;
63005;SDS011;53704;52.532;6.426;2022-09-09T13:56:34;9.40;;;1.20;;
63005;SDS011;53704;52.532;6.426;2022-09-09T13:59:00;2.40;;;1.35;;
63005;SDS011;53704;52.532;6.426;2022-09-09T14:01:26;4.50;;;1.40;;
63005;SDS011;53704;52.532;6.426;2022-09-09T14:03:52;2.95;;;1.67;;
63005;SDS011;53704;52.532;6.426;2022-09-09T14:06:18;2.63;;;1.40;;
63005;SDS011;53704;52.532;6.426;2022-09-09T14:08:44;4.72;;;1.45;;
63005;SDS011;53704;52.532;6.426;2022-09-09T14:11:11;6.10;;;1.52;;
63005;SDS011;53704;52.532;6.426;2022-09-09T14:13:38;3.38;;;1.27;;
63005;SDS011;53704;52.532;6.426;2022-09-09T14:16:03;1.83;;;0.82;;
63005;SDS011;53704;52.532;6.426;2022-09-09T14:18:29;3.90;;;2.15;;
63005;SDS011;53704;52.532;6.426;2022-09-09T14:20:54;4.25;;;1.63;;
63005;SDS011;53704;52.532;6.426;2022-09-09T14:23:20;4.32;;;1.67;;
63005;SDS011;53704;52.532;6.426;2022-09-09T14:25:47;5.13;;;1.23;;
63005;SDS011;53704;52.532;6.426;2022-09-09T14:28:14;6.85;;;1.38;;
63005;SDS011;53704;52.532;6.426;2022-09-09T14:30:40;8.68;;;1.13;;
63005;SDS011;53704;52.532;6.426;2022-09-09T14:33:07;1.67;;;0.95;;
63005;SDS011;53704;52.532;6.426;2022-09-09T14:35:34;2.75;;;1.10;;
63005;SDS011;53704;52.532;6.426;2022-09-09T14:38:01;9.75;;;2.78;;
63005;SDS011;53704;52.532;6.426;2022-09-09T14:40:27;5.82;;;2.80;;
63005;SDS011;53704;52.532;6.426;2022-09-09T14:42:53;11.52;;;2.38;;
63005;SDS011;53704;52.532;6.426;2022-09-09T14:45:18;4.85;;;2.42;;
63005;SDS011;53704;52.532;6.426;2022-09-09T14:47:44;5.18;;;1.75;;
63005;SDS011;53704;52.532;6.426;2022-09-09T14:50:10;5.47;;;2.25;;
63005;SDS011;53704;52.532;6.426;2022-09-09T14:52:37;5.85;;;1.98;;
63005;SDS011;53704;52.532;6.426;2022-09-09T14:55:02;5.63;;;1.20;;
63005;SDS011;53704;52.532;6.426;2022-09-09T14:57:28;6.10;;;1.83;;
63005;SDS011;53704;52.532;6.426;2022-09-09T14:59:53;5.85;;;1.63;;
63005;SDS011;53704;52.532;6.426;2022-09-09T15:02:19;3.47;;;2.17;;
63005;SDS011;53704;52.532;6.426;2022-09-09T15:04:44;10.52;;;1.80;;
63005;SDS011;53704;52.532;6.426;2022-09-09T15:07:10;5.90;;;2.35;;
63005;SDS011;53704;52.532;6.426;2022-09-09T15:09:36;4.82;;;1.52;;
63005;SDS011;53704;52.532;6.426;2022-09-09T15:12:02;2.22;;;1.40;;
63005;SDS011;53704;52.532;6.426;2022-09-09T15:14:29;5.70;;;1.52;;
63005;SDS011;53704;52.532;6.426;2022-09-09T15:16:55;2.97;;;1.50;;
63005;SDS011;53704;52.532;6.426;2022-09-09T15:19:21;4.47;;;1.58;;
63005;SDS011;53704;52.532;6.426;2022-09-09T15:21:47;8.88;;;1.67;;
63005;SDS011;53704;52.532;6.426;2022-09-09T15:24:12;4.65;;;1.58;;
63005;SDS011;53704;52.532;6.426;2022-09-09T15:26:38;14.10;;;3.60;;
63005;SDS011;53704;52.532;6.426;2022-09-09T15:29:04;4.72;;;4.15;;
63005;SDS011;53704;52.532;6.426;2022-09-09T15:31:31;13.35;;;8.82;;
63005;SDS011;53704;52.532;6.426;2022-09-09T15:34:00;10.80;;;8.52;;
63005;SDS011;53704;52.532;6.426;2022-09-09T15:36:30;5.05;;;2.90;;
63005;SDS011;53704;52.532;6.426;2022-09-09T15:38:58;3.60;;;1.60;;
63005;SDS011;53704;52.532;6.426;2022-09-09T15:41:25;3.83;;;1.60;;
63005;SDS011;53704;52.532;6.426;2022-09-09T15:43:52;8.73;;;1.70;;
63005;SDS011;53704;52.532;6.426;2022-09-09T15:48:51;3.10;;;1.23;;
63005;SDS011;53704;52.532;6.426;2022-09-09T15:51:17;2.92;;;1.48;;
63005;SDS011;53704;52.532;6.426;2022-09-09T15:53:43;2.65;;;1.77;;
63005;SDS011;53704;52.532;6.426;2022-09-09T15:56:09;3.22;;;1.70;;
63005;SDS011;53704;52.532;6.426;2022-09-09T15:58:35;3.45;;;1.60;;
63005;SDS011;53704;52.532;6.426;2022-09-09T16:01:02;4.25;;;1.52;;
63005;SDS011;53704;52.532;6.426;2022-09-09T16:03:29;2.25;;;1.40;;
63005;SDS011;53704;52.532;6.426;2022-09-09T16:05:58;2.90;;;1.50;;
63005;SDS011;53704;52.532;6.426;2022-09-09T16:08:24;5.95;;;1.60;;
63005;SDS011;53704;52.532;6.426;2022-09-09T16:10:55;3.55;;;1.50;;
63005;SDS011;53704;52.532;6.426;2022-09-09T16:13:21;8.50;;;1.58;;
63005;SDS011;53704;52.532;6.426;2022-09-09T16:15:53;2.97;;;1.25;;
63005;SDS011;53704;52.532;6.426;2022-09-09T16:18:19;3.22;;;1.73;;
63005;SDS011;53704;52.532;6.426;2022-09-09T16:20:52;3.58;;;1.35;;
63005;SDS011;53704;52.532;6.426;2022-09-09T16:23:19;2.72;;;1.30;;
63005;SDS011;53704;52.532;6.426;2022-09-09T16:25:52;5.65;;;1.13;;
63005;SDS011;53704;52.532;6.426;2022-09-09T16:28:18;6.35;;;1.50;;
63005;SDS011;53704;52.532;6.426;2022-09-09T16:30:44;3.20;;;1.42;;
63005;SDS011;53704;52.532;6.426;2022-09-09T16:33:09;4.90;;;1.48;;
63005;SDS011;53704;52.532;6.426;2022-09-09T16:35:38;6.95;;;1.40;;
63005;SDS011;53704;52.532;6.426;2022-09-09T16:38:03;3.78;;;1.38;;
63005;SDS011;53704;52.532;6.426;2022-09-09T16:40:29;4.40;;;1.40;;
63005;SDS011;53704;52.532;6.426;2022-09-09T16:42:55;13.13;;;1.77;;
63005;SDS011;53704;52.532;6.426;2022-09-09T16:45:20;3.10;;;1.30;;
63005;SDS011;53704;52.532;6.426;2022-09-09T16:47:47;2.67;;;1.45;;
63005;SDS011;53704;52.532;6.426;2022-09-09T16:50:14;7.47;;;1.55;;
63005;SDS011;53704;52.532;6.426;2022-09-09T16:52:39;5.20;;;1.40;;
63005;SDS011;53704;52.532;6.426;2022-09-09T16:55:05;2.63;;;1.40;;
63005;SDS011;53704;52.532;6.426;2022-09-09T16:57:30;2.33;;;1.38;;
63005;SDS011;53704;52.532;6.426;2022-09-09T16:59:56;4.30;;;1.60;;
63005;SDS011;53704;52.532;6.426;2022-09-09T17:02:24;3.83;;;1.40;;
63005;SDS011;53704;52.532;6.426;2022-09-09T17:04:50;3.92;;;1.67;;
63005;SDS011;53704;52.532;6.426;2022-09-09T17:07:15;3.95;;;1.48;;
63005;SDS011;53704;52.532;6.426;2022-09-09T17:09:41;4.15;;;1.55;;
63005;SDS011;53704;52.532;6.426;2022-09-09T17:12:07;6.55;;;2.05;;
63005;SDS011;53704;52.532;6.426;2022-09-09T17:14:33;11.75;;;1.77;;
63005;SDS011;53704;52.532;6.426;2022-09-09T17:16:58;5.07;;;1.38;;
63005;SDS011;53704;52.532;6.426;2022-09-09T17:19:25;10.57;;;2.10;;
63005;SDS011;53704;52.532;6.426;2022-09-09T17:21:51;9.82;;;1.92;;
63005;SDS011;53704;52.532;6.426;2022-09-09T17:24:17;7.68;;;1.90;;
63005;SDS011;53704;52.532;6.426;2022-09-09T17:26:42;3.38;;;1.60;;
63005;SDS011;53704;52.532;6.426;2022-09-09T17:29:08;3.00;;;1.77;;
63005;SDS011;53704;52.532;6.426;2022-09-09T17:31:34;7.78;;;1.77;;
63005;SDS011;53704;52.532;6.426;2022-09-09T17:34:00;6.07;;;1.60;;